sensor_id;sensor_type;location;lat;lon;timestamp;pressure;altitude;pressure_sealevel;temperature;humidity
46241;BME280;31961;52.416;-0.732;2023-02-18T00:00:31;101185.35;;;6.80;100.00
46241;BME280;31961;52.416;-0.732;2023-02-18T00:02:59;101197.37;;;6.62;100.00
46241;BME280;31961;52.416;-0.732;2023-02-18T00:05:28;101187.46;;;6.60;100.00
46241;BME280;31961;52.416;-0.732;2023-02-18T00:07:54;101188.64;;;6.84;100.00
46241;BME280;31961;52.416;-0.732;2023-02-18T00:10:22;101180.88;;;7.02;100.00
46241;BME280;31961;52.416;-0.732;2023-02-18T00:12:50;101178.58;;;6.88;100.00
46241;BME280;31961;52.416;-0.732;2023-02-18T00:15:16;101173.75;;;6.85;100.00
46241;BME280;31961;52.416;-0.732;2023-02-18T00:17:44;101164.33;;;6.62;100.00
46241;BME280;31961;52.416;-0.732;2023-02-18T00:20:12;101156.67;;;7.17;100.00
46241;BME280;31961;52.416;-0.732;2023-02-18T00:22:39;101155.01;;;6.82;100.00
46241;BME280;31961;52.416;-0.732;2023-02-18T00:25:07;101157.27;;;6.81;100.00
46241;BME280;31961;52.416;-0.732;2023-02-18T00:27:34;101156.36;;;7.03;100.00
46241;BME280;31961;52.416;-0.732;2023-02-18T00:30:03;101160.80;;;6.77;100.00
46241;BME280;31961;52.416;-0.732;2023-02-18T00:32:30;101155.90;;;6.85;100.00
46241;BME280;31961;52.416;-0.732;2023-02-18T00:34:58;101149.49;;;6.78;100.00
46241;BME280;31961;52.416;-0.732;2023-02-18T00:37:25;101147.17;;;6.94;100.00
46241;BME280;31961;52.416;-0.732;2023-02-18T00:39:53;101138.40;;;6.74;100.00
46241;BME280;31961;52.416;-0.732;2023-02-18T00:42:20;101142.97;;;7.10;100.00
46241;BME280;31961;52.416;-0.732;2023-02-18T00:44:48;101139.69;;;7.14;100.00
46241;BME280;31961;52.416;-0.732;2023-02-18T00:47:14;101146.09;;;6.99;100.00
46241;BME280;31961;52.416;-0.732;2023-02-18T00:49:42;101146.17;;;6.91;100.00
46241;BME280;31961;52.416;-0.732;2023-02-18T00:52:10;101145.58;;;7.10;100.00
46241;BME280;31961;52.416;-0.732;2023-02-18T00:54:37;101138.02;;;7.20;100.00
46241;BME280;31961;52.416;-0.732;2023-02-18T00:57:05;101154.41;;;6.43;100.00
46241;BME280;31961;52.416;-0.732;2023-02-18T00:59:32;101140.89;;;7.21;100.00
46241;BME280;31961;52.416;-0.732;2023-02-18T01:02:00;101139.37;;;6.61;100.00
46241;BME280;31961;52.416;-0.732;2023-02-18T01:04:28;101123.20;;;7.26;100.00
46241;BME280;31961;52.416;-0.732;2023-02-18T01:06:55;101120.92;;;6.57;100.00
46241;BME280;31961;52.416;-0.732;2023-02-18T01:09:22;101120.87;;;6.87;100.00
46241;BME280;31961;52.416;-0.732;2023-02-18T01:11:50;101125.27;;;6.79;100.00
46241;BME280;31961;52.416;-0.732;2023-02-18T01:14:18;101111.62;;;6.44;100.00
46241;BME280;31961;52.416;-0.732;2023-02-18T01:16:46;101106.47;;;6.97;100.00
46241;BME280;31961;52.416;-0.732;2023-02-18T01:19:13;101103.51;;;6.87;100.00
46241;BME280;31961;52.416;-0.732;2023-02-18T01:21:40;101100.60;;;6.77;100.00
46241;BME280;31961;52.416;-0.732;2023-02-18T01:24:08;101090.13;;;6.63;100.00
46241;BME280;31961;52.416;-0.732;2023-02-18T01:26:35;101089.91;;;6.62;100.00
46241;BME280;31961;52.416;-0.732;2023-02-18T01:29:03;101076.10;;;6.58;100.00
46241;BME280;31961;52.416;-0.732;2023-02-18T01:31:31;101080.35;;;6.77;100.00
46241;BME280;31961;52.416;-0.732;2023-02-18T01:33:58;101081.75;;;6.85;100.00
46241;BME280;31961;52.416;-0.732;2023-02-18T01:36:26;101078.69;;;6.52;100.00
46241;BME280;31961;52.416;-0.732;2023-02-18T01:38:53;101061.23;;;6.73;100.00
46241;BME280;31961;52.416;-0.732;2023-02-18T01:41:21;101052.90;;;6.91;100.00
46241;BME280;31961;52.416;-0.732;2023-02-18T01:44:07;101041.43;;;6.88;100.00
46241;BME280;31961;52.416;-0.732;2023-02-18T01:46:36;101062.74;;;6.35;100.00
46241;BME280;31961;52.416;-0.732;2023-02-18T01:49:04;101067.58;;;6.60;100.00
46241;BME280;31961;52.416;-0.732;2023-02-18T01:51:36;101081.44;;;6.26;100.00
46241;BME280;31961;52.416;-0.732;2023-02-18T01:54:07;101077.80;;;6.94;100.00
46241;BME280;31961;52.416;-0.732;2023-02-18T01:56:39;101065.25;;;6.88;100.00
46241;BME280;31961;52.416;-0.732;2023-02-18T01:59:12;101058.12;;;6.48;100.00
46241;BME280;31961;52.416;-0.732;2023-02-18T02:01:42;101054.15;;;6.60;100.00
46241;BME280;31961;52.416;-0.732;2023-02-18T02:04:10;101053.68;;;6.77;100.00
46241;BME280;31961;52.416;-0.732;2023-02-18T02:06:38;101052.47;;;6.40;100.00
46241;BME280;31961;52.416;-0.732;2023-02-18T02:09:08;101064.80;;;6.67;100.00
46241;BME280;31961;52.416;-0.732;2023-02-18T02:12:52;101076.59;;;6.29;100.00
46241;BME280;31961;52.416;-0.732;2023-02-18T02:15:29;101071.44;;;6.56;100.00
46241;BME280;31961;52.416;-0.732;2023-02-18T02:18:17;101059.24;;;6.59;100.00
46241;BME280;31961;52.416;-0.732;2023-02-18T02:21:12;101065.00;;;6.35;100.00
46241;BME280;31961;52.416;-0.732;2023-02-18T02:24:11;101055.88;;;6.23;100.00
46241;BME280;31961;52.416;-0.732;2023-02-18T02:27:03;101036.56;;;6.18;100.00
46241;BME280;31961;52.416;-0.732;2023-02-18T02:31:10;101051.38;;;6.78;100.00
46241;BME280;31961;52.416;-0.732;2023-02-18T02:34:02;101036.99;;;6.67;100.00
46241;BME280;31961;52.416;-0.732;2023-02-18T02:36:38;101024.13;;;6.58;100.00
46241;BME280;31961;52.416;-0.732;2023-02-18T02:39:12;101008.73;;;6.58;100.00
46241;BME280;31961;52.416;-0.732;2023-02-18T02:41:48;101005.15;;;6.90;100.00
46241;BME280;31961;52.416;-0.732;2023-02-18T02:44:21;101015.86;;;6.71;100.00
46241;BME280;31961;52.416;-0.732;2023-02-18T02:46:55;101020.97;;;5.98;100.00
46241;BME280;31961;52.416;-0.732;2023-02-18T02:49:34;101008.32;;;6.27;100.00
46241;BME280;31961;52.416;-0.732;2023-02-18T02:52:07;101022.56;;;6.39;100.00
46241;BME280;31961;52.416;-0.732;2023-02-18T02:54:36;101021.05;;;6.41;100.00
46241;BME280;31961;52.416;-0.732;2023-02-18T02:57:06;101014.99;;;6.26;100.00
46241;BME280;31961;52.416;-0.732;2023-02-18T02:59:36;100993.68;;;5.99;100.00
46241;BME280;31961;52.416;-0.732;2023-02-18T03:02:20;100998.06;;;6.11;100.00
46241;BME280;31961;52.416;-0.732;2023-02-18T03:04:59;100989.76;;;6.27;100.00
46241;BME280;31961;52.416;-0.732;2023-02-18T03:07:45;100986.52;;;6.32;100.00
46241;BME280;31961;52.416;-0.732;2023-02-18T03:10:30;100982.71;;;5.89;100.00
46241;BME280;31961;52.416;-0.732;2023-02-18T03:13:09;100970.50;;;5.69;100.00
46241;BME280;31961;52.416;-0.732;2023-02-18T03:15:48;100975.65;;;5.50;100.00
46241;BME280;31961;52.416;-0.732;2023-02-18T03:18:25;100960.99;;;5.85;100.00
46241;BME280;31961;52.416;-0.732;2023-02-18T03:21:01;100952.88;;;5.77;100.00
46241;BME280;31961;52.416;-0.732;2023-02-18T03:23:34;100946.62;;;5.52;100.00
46241;BME280;31961;52.416;-0.732;2023-02-18T03:26:05;100945.12;;;5.23;100.00
46241;BME280;31961;52.416;-0.732;2023-02-18T03:28:35;100936.48;;;5.67;100.00
46241;BME280;31961;52.416;-0.732;2023-02-18T03:31:07;100955.27;;;5.52;100.00
46241;BME280;31961;52.416;-0.732;2023-02-18T03:33:38;100943.07;;;5.77;100.00
46241;BME280;31961;52.416;-0.732;2023-02-18T03:36:07;100941.89;;;5.72;100.00
46241;BME280;31961;52.416;-0.732;2023-02-18T03:38:38;100943.07;;;6.10;100.00
46241;BME280;31961;52.416;-0.732;2023-02-18T03:41:06;100955.51;;;5.89;100.00
46241;BME280;31961;52.416;-0.732;2023-02-18T03:43:34;100960.73;;;5.65;100.00
46241;BME280;31961;52.416;-0.732;2023-02-18T03:46:02;100957.20;;;5.64;100.00
46241;BME280;31961;52.416;-0.732;2023-02-18T03:48:30;100957.64;;;5.83;100.00
46241;BME280;31961;52.416;-0.732;2023-02-18T03:50:57;100950.19;;;5.35;100.00
46241;BME280;31961;52.416;-0.732;2023-02-18T03:53:25;100947.71;;;5.78;100.00
46241;BME280;31961;52.416;-0.732;2023-02-18T03:55:52;100938.22;;;5.77;100.00
46241;BME280;31961;52.416;-0.732;2023-02-18T03:58:20;100928.07;;;5.48;100.00
46241;BME280;31961;52.416;-0.732;2023-02-18T04:00:47;100933.47;;;5.49;100.00
46241;BME280;31961;52.416;-0.732;2023-02-18T04:03:15;100939.66;;;5.85;100.00
46241;BME280;31961;52.416;-0.732;2023-02-18T04:05:43;100938.23;;;5.50;100.00
46241;BME280;31961;52.416;-0.732;2023-02-18T04:08:10;100928.57;;;5.60;100.00
46241;BME280;31961;52.416;-0.732;2023-02-18T04:10:38;100929.48;;;5.88;100.00
46241;BME280;31961;52.416;-0.732;2023-02-18T04:13:05;100924.05;;;5.42;100.00
46241;BME280;31961;52.416;-0.732;2023-02-18T04:15:33;100912.41;;;6.02;100.00
46241;BME280;31961;52.416;-0.732;2023-02-18T04:18:00;100917.54;;;5.55;100.00
46241;BME280;31961;52.416;-0.732;2023-02-18T04:20:28;100926.97;;;5.81;100.00
46241;BME280;31961;52.416;-0.732;2023-02-18T04:22:55;100909.10;;;5.40;100.00
46241;BME280;31961;52.416;-0.732;2023-02-18T04:25:23;100911.69;;;5.22;100.00
46241;BME280;31961;52.416;-0.732;2023-02-18T04:27:50;100897.66;;;5.25;100.00
46241;BME280;31961;52.416;-0.732;2023-02-18T04:30:18;100901.01;;;5.48;100.00
46241;BME280;31961;52.416;-0.732;2023-02-18T04:32:46;100900.02;;;5.87;100.00
46241;BME280;31961;52.416;-0.732;2023-02-18T04:35:13;100912.23;;;5.68;100.00
46241;BME280;31961;52.416;-0.732;2023-02-18T04:37:41;100903.34;;;5.76;100.00
46241;BME280;31961;52.416;-0.732;2023-02-18T04:40:09;100904.34;;;5.66;100.00
46241;BME280;31961;52.416;-0.732;2023-02-18T04:42:36;100905.71;;;5.98;100.00
46241;BME280;31961;52.416;-0.732;2023-02-18T04:45:04;100897.40;;;5.65;100.00
46241;BME280;31961;52.416;-0.732;2023-02-18T04:47:32;100900.45;;;5.41;100.00
46241;BME280;31961;52.416;-0.732;2023-02-18T04:49:59;100904.94;;;5.84;100.00
46241;BME280;31961;52.416;-0.732;2023-02-18T04:52:26;100909.05;;;5.95;100.00
46241;BME280;31961;52.416;-0.732;2023-02-18T04:54:53;100912.05;;;5.72;100.00
46241;BME280;31961;52.416;-0.732;2023-02-18T04:57:21;100923.40;;;5.60;100.00
46241;BME280;31961;52.416;-0.732;2023-02-18T04:59:48;100905.89;;;5.67;100.00
46241;BME280;31961;52.416;-0.732;2023-02-18T05:02:16;100909.02;;;5.89;100.00
46241;BME280;31961;52.416;-0.732;2023-02-18T05:04:44;100905.72;;;6.07;100.00
46241;BME280;31961;52.416;-0.732;2023-02-18T05:07:11;100909.32;;;6.18;100.00
46241;BME280;31961;52.416;-0.732;2023-02-18T05:09:39;100907.63;;;5.83;100.00
46241;BME280;31961;52.416;-0.732;2023-02-18T05:12:06;100912.51;;;6.14;100.00
46241;BME280;31961;52.416;-0.732;2023-02-18T05:14:34;100908.26;;;5.83;100.00
46241;BME280;31961;52.416;-0.732;2023-02-18T05:17:01;100907.43;;;5.89;100.00
46241;BME280;31961;52.416;-0.732;2023-02-18T05:19:29;100902.51;;;5.98;100.00
46241;BME280;31961;52.416;-0.732;2023-02-18T05:21:56;100920.16;;;6.06;100.00
46241;BME280;31961;52.416;-0.732;2023-02-18T05:24:24;100908.88;;;5.79;100.00
46241;BME280;31961;52.416;-0.732;2023-02-18T05:26:51;100908.65;;;6.51;100.00
46241;BME280;31961;52.416;-0.732;2023-02-18T05:29:19;100911.06;;;6.18;100.00
46241;BME280;31961;52.416;-0.732;2023-02-18T05:31:47;100916.58;;;6.43;100.00
46241;BME280;31961;52.416;-0.732;2023-02-18T05:34:14;100901.99;;;6.37;100.00
46241;BME280;31961;52.416;-0.732;2023-02-18T05:36:42;100896.59;;;6.13;100.00
46241;BME280;31961;52.416;-0.732;2023-02-18T05:39:09;100906.95;;;5.90;100.00
46241;BME280;31961;52.416;-0.732;2023-02-18T05:41:37;100904.56;;;6.49;100.00
46241;BME280;31961;52.416;-0.732;2023-02-18T05:44:04;100903.79;;;6.22;100.00
46241;BME280;31961;52.416;-0.732;2023-02-18T05:46:32;100897.77;;;5.96;100.00
46241;BME280;31961;52.416;-0.732;2023-02-18T05:48:59;100899.10;;;6.25;100.00
46241;BME280;31961;52.416;-0.732;2023-02-18T05:51:27;100890.39;;;6.24;100.00
46241;BME280;31961;52.416;-0.732;2023-02-18T05:53:55;100898.59;;;6.34;100.00
46241;BME280;31961;52.416;-0.732;2023-02-18T05:56:22;100902.03;;;6.45;100.00
46241;BME280;31961;52.416;-0.732;2023-02-18T05:58:50;100900.58;;;6.12;100.00
46241;BME280;31961;52.416;-0.732;2023-02-18T06:01:17;100904.15;;;6.38;100.00
46241;BME280;31961;52.416;-0.732;2023-02-18T06:03:45;100890.02;;;6.03;100.00
46241;BME280;31961;52.416;-0.732;2023-02-18T06:06:12;100895.30;;;5.93;100.00
46241;BME280;31961;52.416;-0.732;2023-02-18T06:08:40;100870.25;;;5.91;100.00
46241;BME280;31961;52.416;-0.732;2023-02-18T06:11:07;100873.34;;;5.71;100.00
46241;BME280;31961;52.416;-0.732;2023-02-18T06:13:35;100870.74;;;5.98;100.00
46241;BME280;31961;52.416;-0.732;2023-02-18T06:16:03;100874.20;;;5.72;100.00
46241;BME280;31961;52.416;-0.732;2023-02-18T06:18:30;100875.31;;;5.85;100.00
46241;BME280;31961;52.416;-0.732;2023-02-18T06:20:58;100872.59;;;5.74;100.00
46241;BME280;31961;52.416;-0.732;2023-02-18T06:23:25;100861.37;;;5.70;100.00
46241;BME280;31961;52.416;-0.732;2023-02-18T06:25:53;100874.76;;;5.79;100.00
46241;BME280;31961;52.416;-0.732;2023-02-18T06:28:20;100869.83;;;5.82;100.00
46241;BME280;31961;52.416;-0.732;2023-02-18T06:30:48;100872.35;;;5.72;100.00
46241;BME280;31961;52.416;-0.732;2023-02-18T06:33:16;100889.84;;;5.78;100.00
46241;BME280;31961;52.416;-0.732;2023-02-18T06:35:52;100891.23;;;5.67;100.00
46241;BME280;31961;52.416;-0.732;2023-02-18T06:38:20;100894.17;;;5.89;100.00
46241;BME280;31961;52.416;-0.732;2023-02-18T06:40:48;100885.10;;;5.93;100.00
46241;BME280;31961;52.416;-0.732;2023-02-18T06:43:15;100893.72;;;6.27;100.00
46241;BME280;31961;52.416;-0.732;2023-02-18T06:45:43;100905.77;;;5.80;100.00
46241;BME280;31961;52.416;-0.732;2023-02-18T06:48:11;100902.91;;;6.02;100.00
46241;BME280;31961;52.416;-0.732;2023-02-18T06:50:39;100901.82;;;6.01;100.00
46241;BME280;31961;52.416;-0.732;2023-02-18T06:53:06;100894.53;;;6.26;100.00
46241;BME280;31961;52.416;-0.732;2023-02-18T06:55:34;100892.50;;;6.28;100.00
46241;BME280;31961;52.416;-0.732;2023-02-18T06:58:02;100881.46;;;5.99;100.00
46241;BME280;31961;52.416;-0.732;2023-02-18T07:00:29;100875.74;;;5.97;100.00
46241;BME280;31961;52.416;-0.732;2023-02-18T07:02:57;100881.43;;;6.35;100.00
46241;BME280;31961;52.416;-0.732;2023-02-18T07:05:24;100886.71;;;6.14;100.00
46241;BME280;31961;52.416;-0.732;2023-02-18T07:07:52;100882.88;;;5.98;100.00
46241;BME280;31961;52.416;-0.732;2023-02-18T07:10:19;100887.07;;;6.06;100.00
46241;BME280;31961;52.416;-0.732;2023-02-18T07:12:47;100882.15;;;6.19;100.00
46241;BME280;31961;52.416;-0.732;2023-02-18T07:15:15;100891.51;;;5.90;100.00
46241;BME280;31961;52.416;-0.732;2023-02-18T07:17:42;100896.66;;;6.31;100.00
46241;BME280;31961;52.416;-0.732;2023-02-18T07:20:10;100900.71;;;6.18;100.00
46241;BME280;31961;52.416;-0.732;2023-02-18T07:22:37;100900.60;;;6.21;100.00
46241;BME280;31961;52.416;-0.732;2023-02-18T07:25:05;100899.67;;;6.29;100.00
46241;BME280;31961;52.416;-0.732;2023-02-18T07:27:32;100880.45;;;6.36;100.00
46241;BME280;31961;52.416;-0.732;2023-02-18T07:30:00;100894.89;;;6.48;100.00
46241;BME280;31961;52.416;-0.732;2023-02-18T07:32:27;100907.94;;;6.55;100.00
46241;BME280;31961;52.416;-0.732;2023-02-18T07:34:55;100916.90;;;6.43;100.00
46241;BME280;31961;52.416;-0.732;2023-02-18T07:37:22;100907.32;;;6.42;100.00
46241;BME280;31961;52.416;-0.732;2023-02-18T07:39:50;100928.74;;;5.95;100.00
46241;BME280;31961;52.416;-0.732;2023-02-18T07:42:17;100907.63;;;6.21;100.00
46241;BME280;31961;52.416;-0.732;2023-02-18T07:44:45;100905.60;;;6.53;100.00
46241;BME280;31961;52.416;-0.732;2023-02-18T07:47:14;100906.42;;;6.29;100.00
46241;BME280;31961;52.416;-0.732;2023-02-18T07:49:42;100918.52;;;6.35;100.00
46241;BME280;31961;52.416;-0.732;2023-02-18T07:52:09;100929.41;;;6.65;100.00
46241;BME280;31961;52.416;-0.732;2023-02-18T07:54:37;100932.81;;;6.39;100.00
46241;BME280;31961;52.416;-0.732;2023-02-18T07:57:04;100930.61;;;6.60;100.00
46241;BME280;31961;52.416;-0.732;2023-02-18T07:59:32;100930.70;;;6.85;100.00
46241;BME280;31961;52.416;-0.732;2023-02-18T08:01:59;100930.37;;;6.90;100.00
46241;BME280;31961;52.416;-0.732;2023-02-18T08:04:27;100932.49;;;6.57;100.00
46241;BME280;31961;52.416;-0.732;2023-02-18T08:06:54;100940.56;;;6.85;100.00
46241;BME280;31961;52.416;-0.732;2023-02-18T08:09:22;100943.91;;;6.63;100.00
46241;BME280;31961;52.416;-0.732;2023-02-18T08:11:49;100941.57;;;6.87;100.00
46241;BME280;31961;52.416;-0.732;2023-02-18T08:14:16;100945.00;;;7.04;100.00
46241;BME280;31961;52.416;-0.732;2023-02-18T08:16:44;100950.12;;;6.84;100.00
46241;BME280;31961;52.416;-0.732;2023-02-18T08:19:11;100939.97;;;6.75;100.00
46241;BME280;31961;52.416;-0.732;2023-02-18T08:21:39;100947.44;;;6.94;100.00
46241;BME280;31961;52.416;-0.732;2023-02-18T08:24:06;100944.60;;;7.12;100.00
46241;BME280;31961;52.416;-0.732;2023-02-18T08:26:34;100960.07;;;6.86;100.00
46241;BME280;31961;52.416;-0.732;2023-02-18T08:29:02;100963.34;;;6.95;100.00
46241;BME280;31961;52.416;-0.732;2023-02-18T08:31:30;100957.11;;;6.99;100.00
46241;BME280;31961;52.416;-0.732;2023-02-18T08:33:58;100961.32;;;7.18;100.00
46241;BME280;31961;52.416;-0.732;2023-02-18T08:36:25;100962.98;;;7.01;100.00
46241;BME280;31961;52.416;-0.732;2023-02-18T08:38:53;100969.34;;;7.06;100.00
46241;BME280;31961;52.416;-0.732;2023-02-18T08:41:20;100957.54;;;7.25;100.00
46241;BME280;31961;52.416;-0.732;2023-02-18T08:43:48;100966.16;;;6.35;100.00
46241;BME280;31961;52.416;-0.732;2023-02-18T08:46:16;100980.42;;;6.99;100.00
46241;BME280;31961;52.416;-0.732;2023-02-18T08:48:44;100987.67;;;6.62;100.00
46241;BME280;31961;52.416;-0.732;2023-02-18T08:51:14;100980.92;;;7.00;100.00
46241;BME280;31961;52.416;-0.732;2023-02-18T08:53:41;100980.15;;;7.13;100.00
46241;BME280;31961;52.416;-0.732;2023-02-18T08:56:09;100994.03;;;7.21;100.00
46241;BME280;31961;52.416;-0.732;2023-02-18T08:58:36;100999.71;;;6.82;100.00
46241;BME280;31961;52.416;-0.732;2023-02-18T09:01:06;101004.27;;;7.21;100.00
46241;BME280;31961;52.416;-0.732;2023-02-18T09:03:34;100997.31;;;6.91;100.00
46241;BME280;31961;52.416;-0.732;2023-02-18T09:06:03;101005.17;;;7.30;100.00
46241;BME280;31961;52.416;-0.732;2023-02-18T09:08:30;101000.67;;;6.95;100.00
46241;BME280;31961;52.416;-0.732;2023-02-18T09:11:00;101000.04;;;7.36;100.00
46241;BME280;31961;52.416;-0.732;2023-02-18T09:13:27;101009.79;;;7.52;100.00
46241;BME280;31961;52.416;-0.732;2023-02-18T09:15:57;101016.01;;;7.69;100.00
46241;BME280;31961;52.416;-0.732;2023-02-18T09:18:25;101015.06;;;7.36;100.00
46241;BME280;31961;52.416;-0.732;2023-02-18T09:20:55;101018.80;;;7.06;100.00
46241;BME280;31961;52.416;-0.732;2023-02-18T09:23:22;101023.08;;;7.15;100.00
46241;BME280;31961;52.416;-0.732;2023-02-18T09:25:50;101025.84;;;6.99;100.00
46241;BME280;31961;52.416;-0.732;2023-02-18T09:28:17;101024.95;;;7.44;100.00
46241;BME280;31961;52.416;-0.732;2023-02-18T09:30:45;101025.89;;;7.00;100.00
46241;BME280;31961;52.416;-0.732;2023-02-18T09:33:13;101037.59;;;6.57;100.00
46241;BME280;31961;52.416;-0.732;2023-02-18T09:35:40;101031.31;;;7.10;100.00
46241;BME280;31961;52.416;-0.732;2023-02-18T09:38:09;101039.48;;;7.23;100.00
46241;BME280;31961;52.416;-0.732;2023-02-18T09:40:39;101038.66;;;7.40;100.00
46241;BME280;31961;52.416;-0.732;2023-02-18T09:43:17;101046.12;;;6.99;100.00
46241;BME280;31961;52.416;-0.732;2023-02-18T09:45:45;101053.70;;;7.64;100.00
46241;BME280;31961;52.416;-0.732;2023-02-18T09:48:12;101043.22;;;7.56;100.00
46241;BME280;31961;52.416;-0.732;2023-02-18T09:50:40;101039.74;;;7.27;100.00
46241;BME280;31961;52.416;-0.732;2023-02-18T09:53:11;101041.83;;;7.66;100.00
46241;BME280;31961;52.416;-0.732;2023-02-18T09:55:39;101035.96;;;7.43;100.00
46241;BME280;31961;52.416;-0.732;2023-02-18T09:58:11;101047.99;;;7.71;100.00
46241;BME280;31961;52.416;-0.732;2023-02-18T10:00:42;101048.61;;;7.76;100.00
46241;BME280;31961;52.416;-0.732;2023-02-18T10:03:13;101050.82;;;7.65;100.00
46241;BME280;31961;52.416;-0.732;2023-02-18T10:05:49;101048.87;;;7.76;100.00
46241;BME280;31961;52.416;-0.732;2023-02-18T10:08:22;101047.25;;;8.07;100.00
46241;BME280;31961;52.416;-0.732;2023-02-18T10:10:50;101045.36;;;7.81;100.00
46241;BME280;31961;52.416;-0.732;2023-02-18T10:13:21;101031.54;;;7.89;100.00
46241;BME280;31961;52.416;-0.732;2023-02-18T10:15:49;101054.28;;;7.72;100.00
46241;BME280;31961;52.416;-0.732;2023-02-18T10:18:23;101038.33;;;8.04;100.00
46241;BME280;31961;52.416;-0.732;2023-02-18T10:20:53;101043.96;;;8.05;100.00
46241;BME280;31961;52.416;-0.732;2023-02-18T10:23:24;101048.62;;;8.14;100.00
46241;BME280;31961;52.416;-0.732;2023-02-18T10:25:51;101042.34;;;8.42;100.00
46241;BME280;31961;52.416;-0.732;2023-02-18T10:28:21;101048.15;;;8.47;100.00
46241;BME280;31961;52.416;-0.732;2023-02-18T10:30:55;101060.24;;;8.73;100.00
46241;BME280;31961;52.416;-0.732;2023-02-18T10:33:33;101044.88;;;8.90;100.00
46241;BME280;31961;52.416;-0.732;2023-02-18T10:36:10;101046.84;;;8.45;100.00
46241;BME280;31961;52.416;-0.732;2023-02-18T10:38:43;101061.76;;;8.89;100.00
46241;BME280;31961;52.416;-0.732;2023-02-18T10:41:22;101037.58;;;8.84;100.00
46241;BME280;31961;52.416;-0.732;2023-02-18T10:43:55;101046.45;;;9.06;100.00
46241;BME280;31961;52.416;-0.732;2023-02-18T10:46:31;101043.83;;;8.89;100.00
46241;BME280;31961;52.416;-0.732;2023-02-18T10:49:13;101047.06;;;8.93;100.00
46241;BME280;31961;52.416;-0.732;2023-02-18T10:51:53;101039.47;;;9.22;100.00
46241;BME280;31961;52.416;-0.732;2023-02-18T10:54:24;101046.76;;;9.19;100.00
46241;BME280;31961;52.416;-0.732;2023-02-18T10:56:53;101039.39;;;9.16;100.00
46241;BME280;31961;52.416;-0.732;2023-02-18T10:59:25;101044.63;;;9.12;100.00
46241;BME280;31961;52.416;-0.732;2023-02-18T11:01:54;101042.99;;;9.44;100.00
46241;BME280;31961;52.416;-0.732;2023-02-18T11:04:26;101053.90;;;8.90;100.00
46241;BME280;31961;52.416;-0.732;2023-02-18T11:06:54;101055.18;;;8.97;100.00
46241;BME280;31961;52.416;-0.732;2023-02-18T11:09:28;101047.66;;;9.27;100.00
46241;BME280;31961;52.416;-0.732;2023-02-18T11:12:02;101050.71;;;9.10;100.00
46241;BME280;31961;52.416;-0.732;2023-02-18T11:14:39;101047.30;;;9.24;100.00
46241;BME280;31961;52.416;-0.732;2023-02-18T11:17:16;101055.63;;;9.44;100.00
46241;BME280;31961;52.416;-0.732;2023-02-18T11:19:51;101054.53;;;9.10;100.00
46241;BME280;31961;52.416;-0.732;2023-02-18T11:22:21;101046.47;;;9.38;100.00
46241;BME280;31961;52.416;-0.732;2023-02-18T11:24:53;101059.09;;;9.50;100.00
46241;BME280;31961;52.416;-0.732;2023-02-18T11:27:25;101049.54;;;9.34;100.00
46241;BME280;31961;52.416;-0.732;2023-02-18T11:29:56;101041.70;;;9.34;100.00
46241;BME280;31961;52.416;-0.732;2023-02-18T11:32:26;101053.75;;;8.77;100.00
46241;BME280;31961;52.416;-0.732;2023-02-18T11:34:54;101049.75;;;8.71;100.00
46241;BME280;31961;52.416;-0.732;2023-02-18T11:37:22;101053.42;;;9.16;100.00
46241;BME280;31961;52.416;-0.732;2023-02-18T11:39:50;101057.23;;;8.97;100.00
46241;BME280;31961;52.416;-0.732;2023-02-18T11:42:21;101055.91;;;9.20;100.00
46241;BME280;31961;52.416;-0.732;2023-02-18T11:44:51;101055.12;;;9.18;100.00
46241;BME280;31961;52.416;-0.732;2023-02-18T11:47:23;101055.50;;;9.64;100.00
46241;BME280;31961;52.416;-0.732;2023-02-18T11:50:10;101058.52;;;9.49;100.00
46241;BME280;31961;52.416;-0.732;2023-02-18T11:52:42;101066.00;;;8.87;100.00
46241;BME280;31961;52.416;-0.732;2023-02-18T11:55:15;101076.06;;;8.84;100.00
46241;BME280;31961;52.416;-0.732;2023-02-18T11:57:45;101075.03;;;9.12;100.00
46241;BME280;31961;52.416;-0.732;2023-02-18T12:00:21;101072.62;;;9.18;100.00
46241;BME280;31961;52.416;-0.732;2023-02-18T12:02:49;101076.66;;;9.06;100.00
46241;BME280;31961;52.416;-0.732;2023-02-18T12:05:20;101082.88;;;9.49;100.00
46241;BME280;31961;52.416;-0.732;2023-02-18T12:07:50;101080.18;;;9.09;100.00
46241;BME280;31961;52.416;-0.732;2023-02-18T12:10:24;101082.95;;;8.99;100.00
46241;BME280;31961;52.416;-0.732;2023-02-18T12:12:58;101080.92;;;8.56;100.00
46241;BME280;31961;52.416;-0.732;2023-02-18T12:15:36;101088.40;;;8.61;100.00
46241;BME280;31961;52.416;-0.732;2023-02-18T12:18:19;101070.03;;;9.10;100.00
46241;BME280;31961;52.416;-0.732;2023-02-18T12:20:59;101071.35;;;9.29;100.00
46241;BME280;31961;52.416;-0.732;2023-02-18T12:23:34;101067.99;;;9.11;100.00
46241;BME280;31961;52.416;-0.732;2023-02-18T12:26:12;101068.19;;;9.14;100.00
46241;BME280;31961;52.416;-0.732;2023-02-18T12:28:57;101058.15;;;9.00;100.00
46241;BME280;31961;52.416;-0.732;2023-02-18T12:31:40;101054.21;;;9.28;100.00
46241;BME280;31961;52.416;-0.732;2023-02-18T12:34:22;101078.85;;;8.99;100.00
46241;BME280;31961;52.416;-0.732;2023-02-18T12:37:02;101077.03;;;8.84;100.00
46241;BME280;31961;52.416;-0.732;2023-02-18T12:39:47;101068.79;;;9.32;100.00
46241;BME280;31961;52.416;-0.732;2023-02-18T12:42:28;101070.12;;;8.99;100.00
46241;BME280;31961;52.416;-0.732;2023-02-18T12:45:12;101061.12;;;8.91;100.00
46241;BME280;31961;52.416;-0.732;2023-02-18T12:48:01;101058.75;;;9.43;100.00
46241;BME280;31961;52.416;-0.732;2023-02-18T12:50:42;101054.92;;;8.72;100.00
46241;BME280;31961;52.416;-0.732;2023-02-18T12:53:28;101052.83;;;9.01;100.00
46241;BME280;31961;52.416;-0.732;2023-02-18T12:56:16;101045.72;;;9.11;100.00
46241;BME280;31961;52.416;-0.732;2023-02-18T12:58:54;101046.29;;;8.84;100.00